sensor_id;sensor_type;location;lat;lon;timestamp;pressure;altitude;pressure_sealevel;temperature;humidity
48527;BME280;34317;51.660;5.824;2023-02-11T00:01:29;103378.88;;;10.33;57.59
48527;BME280;34317;51.660;5.824;2023-02-11T00:03:57;103375.34;;;10.35;57.52
48527;BME280;34317;51.660;5.824;2023-02-11T00:06:28;103372.69;;;10.35;57.53
48527;BME280;34317;51.660;5.824;2023-02-11T00:08:56;103372.69;;;10.35;57.24
48527;BME280;34317;51.660;5.824;2023-02-11T00:11:25;103357.69;;;10.33;57.22
48527;BME280;34317;51.660;5.824;2023-02-11T00:13:58;103355.94;;;10.32;57.70
48527;BME280;34317;51.660;5.824;2023-02-11T00:16:26;103366.53;;;10.32;57.45
48527;BME280;34317;51.660;5.824;2023-02-11T00:18:54;103357.72;;;10.30;57.44
48527;BME280;34317;51.660;5.824;2023-02-11T00:21:23;103352.41;;;10.30;57.40
48527;BME280;34317;51.660;5.824;2023-02-11T00:23:51;103363.00;;;10.30;57.34
48527;BME280;34317;51.660;5.824;2023-02-11T00:26:23;103368.31;;;10.30;57.50
48527;BME280;34317;51.660;5.824;2023-02-11T00:28:51;103373.59;;;10.30;57.63
48527;BME280;34317;51.660;5.824;2023-02-11T00:31:21;103356.81;;;10.33;57.62
48527;BME280;34317;51.660;5.824;2023-02-11T00:33:49;103355.03;;;10.32;57.57
48527;BME280;34317;51.660;5.824;2023-02-11T00:36:21;103348.88;;;10.31;57.46
48527;BME280;34317;51.660;5.824;2023-02-11T00:38:49;103359.47;;;10.31;57.25
48527;BME280;34317;51.660;5.824;2023-02-11T00:41:18;103352.41;;;10.30;57.45
48527;BME280;34317;51.660;5.824;2023-02-11T00:43:46;103355.91;;;10.29;57.51
48527;BME280;34317;51.660;5.824;2023-02-11T00:46:14;103357.72;;;10.30;57.35
48527;BME280;34317;51.660;5.824;2023-02-11T00:48:41;103357.72;;;10.30;57.57
48527;BME280;34317;51.660;5.824;2023-02-11T00:51:11;103359.47;;;10.31;57.34
48527;BME280;34317;51.660;5.824;2023-02-11T00:53:39;103359.47;;;10.31;57.38
48527;BME280;34317;51.660;5.824;2023-02-11T00:56:07;103356.81;;;10.33;57.47
48527;BME280;34317;51.660;5.824;2023-02-11T00:58:35;103351.50;;;10.33;57.31
48527;BME280;34317;51.660;5.824;2023-02-11T01:01:03;103366.53;;;10.32;57.25
48527;BME280;34317;51.660;5.824;2023-02-11T01:03:32;103364.75;;;10.31;57.39
48527;BME280;34317;51.660;5.824;2023-02-11T01:06:00;103369.19;;;10.32;57.31
48527;BME280;34317;51.660;5.824;2023-02-11T01:08:27;103361.22;;;10.32;57.42
48527;BME280;34317;51.660;5.824;2023-02-11T01:10:56;103367.41;;;10.33;57.43
48527;BME280;34317;51.660;5.824;2023-02-11T01:13:25;103371.81;;;10.32;57.25
48527;BME280;34317;51.660;5.824;2023-02-11T01:15:54;103373.56;;;10.32;56.98
48527;BME280;34317;51.660;5.824;2023-02-11T01:18:24;103375.34;;;10.31;57.52
48527;BME280;34317;51.660;5.824;2023-02-11T01:20:52;103380.66;;;10.31;57.28
48527;BME280;34317;51.660;5.824;2023-02-11T01:23:20;103377.13;;;10.32;57.31
48527;BME280;34317;51.660;5.824;2023-02-11T01:25:48;103373.59;;;10.30;57.34
48527;BME280;34317;51.660;5.824;2023-02-11T01:28:18;103380.66;;;10.31;57.71
48527;BME280;34317;51.660;5.824;2023-02-11T01:30:46;103368.31;;;10.30;57.07
48527;BME280;34317;51.660;5.824;2023-02-11T01:33:13;103357.72;;;10.30;57.25
48527;BME280;34317;51.660;5.824;2023-02-11T01:35:43;103345.31;;;10.29;57.10
48527;BME280;34317;51.660;5.824;2023-02-11T01:38:16;103352.38;;;10.27;57.33
48527;BME280;34317;51.660;5.824;2023-02-11T01:40:49;103347.06;;;10.27;57.21
48527;BME280;34317;51.660;5.824;2023-02-11T01:43:17;103338.25;;;10.28;57.25
48527;BME280;34317;51.660;5.824;2023-02-11T01:50:58;103302.06;;;10.27;57.01
48527;BME280;34317;51.660;5.824;2023-02-11T01:53:27;103298.53;;;10.25;57.08
48527;BME280;34317;51.660;5.824;2023-02-11T01:56:15;103305.59;;;10.23;57.23
48527;BME280;34317;51.660;5.824;2023-02-11T01:59:14;103314.47;;;10.19;57.42
48527;BME280;34317;51.660;5.824;2023-02-11T02:01:49;103316.19;;;10.19;57.12
48527;BME280;34317;51.660;5.824;2023-02-11T02:04:20;103317.97;;;10.17;57.24
48527;BME280;34317;51.660;5.824;2023-02-11T02:06:52;103317.09;;;10.16;57.30
48527;BME280;34317;51.660;5.824;2023-02-11T02:09:25;103337.41;;;10.14;57.31
48527;BME280;34317;51.660;5.824;2023-02-11T02:11:54;103353.31;;;10.12;57.23
48527;BME280;34317;51.660;5.824;2023-02-11T02:14:22;103362.13;;;10.14;57.11
48527;BME280;34317;51.660;5.824;2023-02-11T02:16:53;103355.94;;;10.14;57.34
48527;BME280;34317;51.660;5.824;2023-02-11T02:22:41;103338.28;;;10.13;57.16
48527;BME280;34317;51.660;5.824;2023-02-11T02:25:46;103341.84;;;10.12;57.22
48527;BME280;34317;51.660;5.824;2023-02-11T02:29:15;103317.13;;;10.10;57.33
48527;BME280;34317;51.660;5.824;2023-02-11T02:31:58;103297.69;;;10.11;57.37
48527;BME280;34317;51.660;5.824;2023-02-11T02:34:36;103299.47;;;10.09;57.46
48527;BME280;34317;51.660;5.824;2023-02-11T02:37:33;103313.63;;;10.08;57.47
48527;BME280;34317;51.660;5.824;2023-02-11T02:40:08;103301.25;;;10.07;57.38
48527;BME280;34317;51.660;5.824;2023-02-11T02:42:39;103297.72;;;10.08;57.30
48527;BME280;34317;51.660;5.824;2023-02-11T02:45:08;103310.06;;;10.09;57.52
48527;BME280;34317;51.660;5.824;2023-02-11T02:47:36;103321.53;;;10.09;57.38
48527;BME280;34317;51.660;5.824;2023-02-11T02:50:05;103329.47;;;10.11;57.52
48527;BME280;34317;51.660;5.824;2023-02-11T02:55:50;103325.94;;;10.09;57.43
48527;BME280;34317;51.660;5.824;2023-02-11T03:04:32;103308.31;;;10.05;57.40
48527;BME280;34317;51.660;5.824;2023-02-11T03:07:10;103308.31;;;10.05;57.60
48527;BME280;34317;51.660;5.824;2023-02-11T03:09:54;103304.78;;;10.03;57.36
48527;BME280;34317;51.660;5.824;2023-02-11T03:12:26;103297.72;;;10.02;57.47
48527;BME280;34317;51.660;5.824;2023-02-11T03:14:55;103299.50;;;10.00;57.45
48527;BME280;34317;51.660;5.824;2023-02-11T03:17:25;103303.03;;;9.99;57.69
48527;BME280;34317;51.660;5.824;2023-02-11T03:19:54;103308.34;;;9.99;57.65
48527;BME280;34317;51.660;5.824;2023-02-11T03:22:32;103299.53;;;9.97;57.32
48527;BME280;34317;51.660;5.824;2023-02-11T03:25:01;103303.03;;;9.97;57.86
48527;BME280;34317;51.660;5.824;2023-02-11T03:27:38;103298.66;;;9.94;57.48
48527;BME280;34317;51.660;5.824;2023-02-11T03:30:16;103307.47;;;9.93;57.50
48527;BME280;34317;51.660;5.824;2023-02-11T03:32:51;103309.25;;;9.93;57.77
48527;BME280;34317;51.660;5.824;2023-02-11T03:35:45;103311.88;;;9.88;57.71
48527;BME280;34317;51.660;5.824;2023-02-11T03:38:25;103315.44;;;9.87;57.67
48527;BME280;34317;51.660;5.824;2023-02-11T03:40:54;103309.25;;;9.85;57.65
48527;BME280;34317;51.660;5.824;2023-02-11T03:43:32;103303.09;;;9.83;57.70
48527;BME280;34317;51.660;5.824;2023-02-11T03:46:02;103304.81;;;9.81;57.77
48527;BME280;34317;51.660;5.824;2023-02-11T03:48:32;103297.78;;;9.80;57.58
48527;BME280;34317;51.660;5.824;2023-02-11T03:51:03;103296.91;;;9.78;57.86
48527;BME280;34317;51.660;5.824;2023-02-11T03:53:32;103288.97;;;9.78;58.06
48527;BME280;34317;51.660;5.824;2023-02-11T03:56:02;103288.09;;;9.76;58.00
48527;BME280;34317;51.660;5.824;2023-02-11T03:58:31;103283.69;;;9.75;57.93
48527;BME280;34317;51.660;5.824;2023-02-11T04:00:58;103289.00;;;9.72;57.96
48527;BME280;34317;51.660;5.824;2023-02-11T04:03:28;103285.44;;;9.70;57.81
48527;BME280;34317;51.660;5.824;2023-02-11T04:05:55;103281.06;;;9.70;57.92
48527;BME280;34317;51.660;5.824;2023-02-11T04:08:22;103274.00;;;9.69;57.89
48527;BME280;34317;51.660;5.824;2023-02-11T04:10:50;103267.81;;;9.69;57.93
48527;BME280;34317;51.660;5.824;2023-02-11T04:13:17;103264.31;;;9.67;57.98
48527;BME280;34317;51.660;5.824;2023-02-11T04:15:44;103259.00;;;9.67;58.23
48527;BME280;34317;51.660;5.824;2023-02-11T04:18:14;103260.78;;;9.65;58.30
48527;BME280;34317;51.660;5.824;2023-02-11T04:20:42;103269.59;;;9.64;58.00
48527;BME280;34317;51.660;5.824;2023-02-11T04:23:09;103280.19;;;9.64;58.27
48527;BME280;34317;51.660;5.824;2023-02-11T04:25:37;103280.19;;;9.64;58.32
48527;BME280;34317;51.660;5.824;2023-02-11T04:28:04;103276.66;;;9.65;58.32
48527;BME280;34317;51.660;5.824;2023-02-11T04:30:32;103287.25;;;9.65;58.13
48527;BME280;34317;51.660;5.824;2023-02-11T04:32:59;103297.81;;;9.65;58.25
48527;BME280;34317;51.660;5.824;2023-02-11T04:35:26;103296.06;;;9.65;58.32
48527;BME280;34317;51.660;5.824;2023-02-11T04:37:53;103297.81;;;9.65;58.46
48527;BME280;34317;51.660;5.824;2023-02-11T04:40:20;103300.47;;;9.66;58.52
48527;BME280;34317;51.660;5.824;2023-02-11T04:42:47;103293.41;;;9.68;58.54
48527;BME280;34317;51.660;5.824;2023-02-11T04:45:15;103293.38;;;9.70;58.81
48527;BME280;34317;51.660;5.824;2023-02-11T04:47:42;103294.28;;;9.72;58.64
48527;BME280;34317;51.660;5.824;2023-02-11T04:50:10;103294.28;;;9.72;58.37
48527;BME280;34317;51.660;5.824;2023-02-11T04:52:37;103287.19;;;9.75;58.65
48527;BME280;34317;51.660;5.824;2023-02-11T04:55:05;103296.91;;;9.77;58.42
48527;BME280;34317;51.660;5.824;2023-02-11T04:57:32;103297.78;;;9.77;58.44
48527;BME280;34317;51.660;5.824;2023-02-11T04:59:59;103301.31;;;9.79;58.42
48527;BME280;34317;51.660;5.824;2023-02-11T05:02:27;103296.00;;;9.79;58.52
48527;BME280;34317;51.660;5.824;2023-02-11T05:04:54;103297.78;;;9.80;58.68
48527;BME280;34317;51.660;5.824;2023-02-11T05:07:21;103290.72;;;9.82;58.82
48527;BME280;34317;51.660;5.824;2023-02-11T05:09:49;103294.25;;;9.84;58.64
48527;BME280;34317;51.660;5.824;2023-02-11T05:12:16;103295.13;;;9.86;58.65
48527;BME280;34317;51.660;5.824;2023-02-11T05:14:43;103295.13;;;9.88;58.65
48527;BME280;34317;51.660;5.824;2023-02-11T05:17:10;103294.25;;;9.87;58.59
48527;BME280;34317;51.660;5.824;2023-02-11T05:19:37;103288.97;;;9.87;58.82
48527;BME280;34317;51.660;5.824;2023-02-11T05:22:06;103281.88;;;9.89;58.72
48527;BME280;34317;51.660;5.824;2023-02-11T05:24:33;103280.13;;;9.90;58.61
48527;BME280;34317;51.660;5.824;2023-02-11T05:27:00;103273.03;;;9.90;58.44
48527;BME280;34317;51.660;5.824;2023-02-11T05:29:28;103280.13;;;9.91;58.69
48527;BME280;34317;51.660;5.824;2023-02-11T05:31:58;103276.56;;;9.92;58.87
48527;BME280;34317;51.660;5.824;2023-02-11T05:34:25;103277.47;;;9.94;58.66
48527;BME280;34317;51.660;5.824;2023-02-11T05:36:52;103280.13;;;9.94;58.75
48527;BME280;34317;51.660;5.824;2023-02-11T05:39:20;103284.50;;;9.97;58.63
48527;BME280;34317;51.660;5.824;2023-02-11T05:41:47;103285.38;;;9.98;58.87
48527;BME280;34317;51.660;5.824;2023-02-11T05:44:14;103279.22;;;9.99;58.61
48527;BME280;34317;51.660;5.824;2023-02-11T05:46:41;103287.16;;;9.99;58.84
48527;BME280;34317;51.660;5.824;2023-02-11T05:49:08;103282.75;;;9.99;59.02
48527;BME280;34317;51.660;5.824;2023-02-11T05:51:36;103287.16;;;9.99;58.80
48527;BME280;34317;51.660;5.824;2023-02-11T05:54:03;103288.03;;;10.01;59.13
48527;BME280;34317;51.660;5.824;2023-02-11T05:56:31;103294.19;;;10.03;58.90
48527;BME280;34317;51.660;5.824;2023-02-11T05:58:59;103299.50;;;10.03;58.88
48527;BME280;34317;51.660;5.824;2023-02-11T06:01:26;103290.66;;;10.04;59.05
48527;BME280;34317;51.660;5.824;2023-02-11T06:03:53;103288.91;;;10.03;58.70
48527;BME280;34317;51.660;5.824;2023-02-11T06:06:21;103281.84;;;10.05;58.77
48527;BME280;34317;51.660;5.824;2023-02-11T06:08:48;103282.72;;;10.05;58.71
48527;BME280;34317;51.660;5.824;2023-02-11T06:11:16;103292.44;;;10.05;59.22
48527;BME280;34317;51.660;5.824;2023-02-11T06:13:43;103294.19;;;10.06;58.91
48527;BME280;34317;51.660;5.824;2023-02-11T06:16:11;103302.13;;;10.07;58.88
48527;BME280;34317;51.660;5.824;2023-02-11T06:18:38;103302.13;;;10.09;59.14
48527;BME280;34317;51.660;5.824;2023-02-11T06:21:07;103297.69;;;10.09;58.85
48527;BME280;34317;51.660;5.824;2023-02-11T06:23:35;103300.34;;;10.11;58.80
48527;BME280;34317;51.660;5.824;2023-02-11T06:26:05;103297.69;;;10.11;59.04
48527;BME280;34317;51.660;5.824;2023-02-11T06:28:33;103304.75;;;10.12;59.04
48527;BME280;34317;51.660;5.824;2023-02-11T06:31:06;103305.63;;;10.12;59.02
48527;BME280;34317;51.660;5.824;2023-02-11T06:33:34;103306.50;;;10.13;59.03
48527;BME280;34317;51.660;5.824;2023-02-11T06:36:02;103309.16;;;10.13;59.13
48527;BME280;34317;51.660;5.824;2023-02-11T06:38:30;103311.81;;;10.13;59.02
48527;BME280;34317;51.660;5.824;2023-02-11T06:40:57;103313.59;;;10.14;58.78
48527;BME280;34317;51.660;5.824;2023-02-11T06:43:24;103309.16;;;10.13;58.80
48527;BME280;34317;51.660;5.824;2023-02-11T06:45:53;103297.69;;;10.14;58.97
48527;BME280;34317;51.660;5.824;2023-02-11T06:48:22;103308.28;;;10.14;58.85
48527;BME280;34317;51.660;5.824;2023-02-11T06:50:49;103301.22;;;10.14;58.92
48527;BME280;34317;51.660;5.824;2023-02-11T06:53:16;103297.69;;;10.14;59.22
48527;BME280;34317;51.660;5.824;2023-02-11T06:55:44;103303.88;;;10.14;59.10
48527;BME280;34317;51.660;5.824;2023-02-11T06:58:11;103308.28;;;10.17;59.14
48527;BME280;34317;51.660;5.824;2023-02-11T07:00:38;103313.59;;;10.17;59.11
48527;BME280;34317;51.660;5.824;2023-02-11T07:03:06;103306.50;;;10.18;59.16
48527;BME280;34317;51.660;5.824;2023-02-11T07:05:33;103317.09;;;10.19;59.11
48527;BME280;34317;51.660;5.824;2023-02-11T07:08:01;103310.03;;;10.18;58.98
48527;BME280;34317;51.660;5.824;2023-02-11T07:10:28;103312.69;;;10.18;59.27
48527;BME280;34317;51.660;5.824;2023-02-11T07:12:55;103314.47;;;10.18;59.44
48527;BME280;34317;51.660;5.824;2023-02-11T07:15:25;103317.09;;;10.19;59.18
48527;BME280;34317;51.660;5.824;2023-02-11T07:17:52;103332.09;;;10.19;59.30
48527;BME280;34317;51.660;5.824;2023-02-11T07:20:19;103321.50;;;10.19;59.04
48527;BME280;34317;51.660;5.824;2023-02-11T07:22:47;103329.47;;;10.17;59.35
48527;BME280;34317;51.660;5.824;2023-02-11T07:25:14;103333.00;;;10.19;59.25
48527;BME280;34317;51.660;5.824;2023-02-11T07:27:41;103331.22;;;10.21;59.25
48527;BME280;34317;51.660;5.824;2023-02-11T07:30:09;103332.97;;;10.22;59.25
48527;BME280;34317;51.660;5.824;2023-02-11T07:32:37;103329.44;;;10.23;59.40
48527;BME280;34317;51.660;5.824;2023-02-11T07:35:04;103333.84;;;10.24;59.20
48527;BME280;34317;51.660;5.824;2023-02-11T07:37:35;103336.47;;;10.24;59.14
48527;BME280;34317;51.660;5.824;2023-02-11T07:40:02;103332.97;;;10.25;59.32
48527;BME280;34317;51.660;5.824;2023-02-11T07:42:30;103340.00;;;10.26;59.37
48527;BME280;34317;51.660;5.824;2023-02-11T07:44:57;103346.22;;;10.27;59.51
48527;BME280;34317;51.660;5.824;2023-02-11T07:47:24;103353.25;;;10.28;59.44
48527;BME280;34317;51.660;5.824;2023-02-11T07:49:52;103358.56;;;10.29;59.25
48527;BME280;34317;51.660;5.824;2023-02-11T07:52:22;103355.94;;;10.31;59.36
48527;BME280;34317;51.660;5.824;2023-02-11T07:54:50;103347.13;;;10.30;59.42
48527;BME280;34317;51.660;5.824;2023-02-11T07:57:17;103352.38;;;10.33;59.29
48527;BME280;34317;51.660;5.824;2023-02-11T07:59:44;103350.59;;;10.36;59.42
48527;BME280;34317;51.660;5.824;2023-02-11T08:02:11;103352.38;;;10.37;59.55
48527;BME280;34317;51.660;5.824;2023-02-11T08:04:39;103356.78;;;10.38;59.38
48527;BME280;34317;51.660;5.824;2023-02-11T08:07:06;103362.97;;;10.40;59.36
48527;BME280;34317;51.660;5.824;2023-02-11T08:09:33;103359.44;;;10.41;59.30
48527;BME280;34317;51.660;5.824;2023-02-11T08:12:00;103358.56;;;10.42;59.42
48527;BME280;34317;51.660;5.824;2023-02-11T08:14:28;103362.94;;;10.43;59.20
48527;BME280;34317;51.660;5.824;2023-02-11T08:16:55;103362.06;;;10.42;59.34
48527;BME280;34317;51.660;5.824;2023-02-11T08:19:22;103371.81;;;10.42;59.47
48527;BME280;34317;51.660;5.824;2023-02-11T08:21:50;103370.03;;;10.44;59.56
48527;BME280;34317;51.660;5.824;2023-02-11T08:24:20;103367.34;;;10.47;59.48
48527;BME280;34317;51.660;5.824;2023-02-11T08:26:48;103371.78;;;10.48;59.60
48527;BME280;34317;51.660;5.824;2023-02-11T08:29:15;103366.47;;;10.51;59.47
48527;BME280;34317;51.660;5.824;2023-02-11T08:31:46;103368.22;;;10.52;59.50
48527;BME280;34317;51.660;5.824;2023-02-11T08:34:14;103365.56;;;10.54;59.60
48527;BME280;34317;51.660;5.824;2023-02-11T08:36:45;103373.50;;;10.55;59.49
48527;BME280;34317;51.660;5.824;2023-02-11T08:39:18;103365.53;;;10.57;59.46
48527;BME280;34317;51.660;5.824;2023-02-11T08:41:49;103373.47;;;10.58;59.62
48527;BME280;34317;51.660;5.824;2023-02-11T08:44:18;103378.78;;;10.61;59.57
48527;BME280;34317;51.660;5.824;2023-02-11T08:46:47;103372.56;;;10.62;59.50
48527;BME280;34317;51.660;5.824;2023-02-11T08:49:15;103373.47;;;10.64;59.41
48527;BME280;34317;51.660;5.824;2023-02-11T08:51:43;103381.38;;;10.67;59.61
48527;BME280;34317;51.660;5.824;2023-02-11T08:54:10;103379.59;;;10.71;59.66
48527;BME280;34317;51.660;5.824;2023-02-11T08:56:38;103377.84;;;10.73;59.75
48527;BME280;34317;51.660;5.824;2023-02-11T08:59:06;103377.81;;;10.75;59.46
48527;BME280;34317;51.660;5.824;2023-02-11T09:01:35;103384.00;;;10.77;59.60
48527;BME280;34317;51.660;5.824;2023-02-11T09:04:03;103382.22;;;10.79;59.71
48527;BME280;34317;51.660;5.824;2023-02-11T09:06:30;103380.44;;;10.84;59.71
48527;BME280;34317;51.660;5.824;2023-02-11T09:08:57;103386.59;;;10.87;59.71
48527;BME280;34317;51.660;5.824;2023-02-11T09:11:29;103385.69;;;10.90;59.72
48527;BME280;34317;51.660;5.824;2023-02-11T09:13:57;103382.16;;;10.91;59.52
48527;BME280;34317;51.660;5.824;2023-02-11T09:16:28;103391.88;;;10.94;59.68
48527;BME280;34317;51.660;5.824;2023-02-11T09:18:57;103393.59;;;10.96;59.76
48527;BME280;34317;51.660;5.824;2023-02-11T09:21:25;103396.25;;;10.99;59.45
48527;BME280;34317;51.660;5.824;2023-02-11T09:23:53;103402.44;;;11.01;59.81
48527;BME280;34317;51.660;5.824;2023-02-11T09:26:22;103400.63;;;11.06;59.63
48527;BME280;34317;51.660;5.824;2023-02-11T09:28:50;103410.34;;;11.10;59.78
48527;BME280;34317;51.660;5.824;2023-02-11T09:31:21;103406.75;;;11.15;59.73
48527;BME280;34317;51.660;5.824;2023-02-11T09:33:51;103404.97;;;11.17;59.55
48527;BME280;34317;51.660;5.824;2023-02-11T09:36:24;103407.63;;;11.20;59.59
48527;BME280;34317;51.660;5.824;2023-02-11T09:38:53;103403.19;;;11.22;59.74
48527;BME280;34317;51.660;5.824;2023-02-11T09:44:06;103417.31;;;11.27;59.67
48527;BME280;34317;51.660;5.824;2023-02-11T09:46:36;103417.28;;;11.30;59.69
48527;BME280;34317;51.660;5.824;2023-02-11T09:49:17;103419.06;;;11.31;59.43
48527;BME280;34317;51.660;5.824;2023-02-11T09:51:50;103424.34;;;11.34;59.63
48527;BME280;34317;51.660;5.824;2023-02-11T09:54:28;103431.41;;;11.35;59.36
48527;BME280;34317;51.660;5.824;2023-02-11T09:56:57;103429.63;;;11.37;59.29
48527;BME280;34317;51.660;5.824;2023-02-11T09:59:24;103420.78;;;11.38;59.40
48527;BME280;34317;51.660;5.824;2023-02-11T10:02:03;103424.28;;;11.40;59.52
48527;BME280;34317;51.660;5.824;2023-02-11T10:05:35;103431.34;;;11.41;59.40
48527;BME280;34317;51.660;5.824;2023-02-11T10:07:49;103433.13;;;11.45;59.44
48527;BME280;34317;51.660;5.824;2023-02-11T10:10:32;103441.94;;;11.49;59.53
48527;BME280;34317;51.660;5.824;2023-02-11T10:18:51;103455.97;;;11.62;59.58
48527;BME280;34317;51.660;5.824;2023-02-11T10:24:15;103449.72;;;11.69;59.37
48527;BME280;34317;51.660;5.824;2023-02-11T10:26:44;103464.75;;;11.73;59.48
48527;BME280;34317;51.660;5.824;2023-02-11T10:29:35;103456.78;;;11.75;59.40
48527;BME280;34317;51.660;5.824;2023-02-11T10:34:55;103472.69;;;11.79;59.33
48527;BME280;34317;51.660;5.824;2023-02-11T10:37:24;103473.56;;;11.81;59.42
48527;BME280;34317;51.660;5.824;2023-02-11T10:39:51;103474.41;;;11.83;59.52
48527;BME280;34317;51.660;5.824;2023-02-11T10:42:19;103469.97;;;11.85;59.28
48527;BME280;34317;51.660;5.824;2023-02-11T10:44:57;103474.38;;;11.88;59.44
48527;BME280;34317;51.660;5.824;2023-02-11T10:47:32;103471.72;;;11.90;59.34
48527;BME280;34317;51.660;5.824;2023-02-11T10:50:30;103472.63;;;11.88;59.35
48527;BME280;34317;51.660;5.824;2023-02-11T10:53:16;103469.06;;;11.88;59.36
48527;BME280;34317;51.660;5.824;2023-02-11T10:55:53;103469.97;;;11.85;59.08
48527;BME280;34317;51.660;5.824;2023-02-11T10:58:27;103478.81;;;11.84;59.22
48527;BME280;34317;51.660;5.824;2023-02-11T11:00:57;103478.84;;;11.81;59.17
48527;BME280;34317;51.660;5.824;2023-02-11T11:03:28;103478.84;;;11.81;59.16
48527;BME280;34317;51.660;5.824;2023-02-11T11:06:00;103485.91;;;11.82;59.27
48527;BME280;34317;51.660;5.824;2023-02-11T11:11:29;103490.31;;;11.86;59.37
48527;BME280;34317;51.660;5.824;2023-02-11T11:13:58;103492.97;;;11.90;59.46
48527;BME280;34317;51.660;5.824;2023-02-11T11:16:30;103491.19;;;11.92;59.42
48527;BME280;34317;51.660;5.824;2023-02-11T11:21:36;103486.72;;;11.98;59.42
48527;BME280;34317;51.660;5.824;2023-02-11T11:24:29;103479.63;;;12.00;59.55
48527;BME280;34317;51.660;5.824;2023-02-11T11:27:01;103491.97;;;12.03;59.36
48527;BME280;34317;51.660;5.824;2023-02-11T11:29:44;103480.44;;;12.07;59.57
48527;BME280;34317;51.660;5.824;2023-02-11T11:32:26;103486.59;;;12.11;59.81
48527;BME280;34317;51.660;5.824;2023-02-11T11:34:59;103483.00;;;12.18;59.58
48527;BME280;34317;51.660;5.824;2023-02-11T11:37:29;103480.31;;;12.22;59.36
48527;BME280;34317;51.660;5.824;2023-02-11T11:42:42;103481.06;;;12.34;59.60
48527;BME280;34317;51.660;5.824;2023-02-11T11:47:51;103474.78;;;12.41;59.56
48527;BME280;34317;51.660;5.824;2023-02-11T11:50:34;103472.97;;;12.46;59.46
48527;BME280;34317;51.660;5.824;2023-02-11T11:53:22;103469.38;;;12.50;59.29
48527;BME280;34317;51.660;5.824;2023-02-11T11:56:16;103461.41;;;12.49;59.15
48527;BME280;34317;51.660;5.824;2023-02-11T11:58:44;103466.72;;;12.50;59.28
48527;BME280;34317;51.660;5.824;2023-02-11T12:13:08;103459.38;;;12.72;59.48
48527;BME280;34317;51.660;5.824;2023-02-11T12:15:47;103463.72;;;12.81;59.51
48527;BME280;34317;51.660;5.824;2023-02-11T12:26:22;103457.13;;;13.11;59.21
48527;BME280;34317;51.660;5.824;2023-02-11T12:31:40;103448.97;;;13.22;58.78
48527;BME280;34317;51.660;5.824;2023-02-11T12:40:34;103441.72;;;13.36;58.84
48527;BME280;34317;51.660;5.824;2023-02-11T12:43:20;103443.41;;;13.40;58.70
48527;BME280;34317;51.660;5.824;2023-02-11T12:46:26;103436.28;;;13.42;58.55
48527;BME280;34317;51.660;5.824;2023-02-11T12:51:57;103440.59;;;13.53;58.66
48527;BME280;34317;51.660;5.824;2023-02-11T12:57:18;103429.72;;;13.65;58.50
48527;BME280;34317;51.660;5.824;2023-02-11T12:59:59;103425.19;;;13.70;58.38
48527;BME280;34317;51.660;5.824;2023-02-11T13:05:32;103433.88;;;13.81;58.37
48527;BME280;34317;51.660;5.824;2023-02-11T13:08:10;103439.94;;;13.90;58.36
48527;BME280;34317;51.660;5.824;2023-02-11T13:10:42;103438.94;;;13.97;58.12
48527;BME280;34317;51.660;5.824;2023-02-11T13:13:53;103444.16;;;14.03;58.00
48527;BME280;34317;51.660;5.824;2023-02-11T13:19:09;103444.06;;;14.09;57.88
48527;BME280;34317;51.660;5.824;2023-02-11T13:22:06;103438.63;;;14.15;57.84
48527;BME280;34317;51.660;5.824;2023-02-11T13:24:43;103442.09;;;14.20;57.76
48527;BME280;34317;51.660;5.824;2023-02-11T13:35:30;103425.84;;;14.33;57.02
48527;BME280;34317;51.660;5.824;2023-02-11T13:37:59;103427.53;;;14.37;57.11
48527;BME280;34317;51.660;5.824;2023-02-11T13:40:32;103420.38;;;14.39;56.82
48527;BME280;34317;51.660;5.824;2023-02-11T13:43:02;103426.59;;;14.41;56.62
48527;BME280;34317;51.660;5.824;2023-02-11T13:45:44;103431.88;;;14.43;56.67
48527;BME280;34317;51.660;5.824;2023-02-11T13:50:50;103430.88;;;14.48;56.38
48527;BME280;34317;51.660;5.824;2023-02-11T13:53:19;103434.47;;;14.47;56.30
48527;BME280;34317;51.660;5.824;2023-02-11T13:55:50;103437.16;;;14.46;56.25
48527;BME280;34317;51.660;5.824;2023-02-11T13:58:48;103439.84;;;14.44;56.24
48527;BME280;34317;51.660;5.824;2023-02-11T14:02:00;103430.94;;;14.45;56.21
48527;BME280;34317;51.660;5.824;2023-02-11T14:13:32;103436.19;;;14.48;56.23
48527;BME280;34317;51.660;5.824;2023-02-11T14:16:11;103436.19;;;14.48;56.16
48527;BME280;34317;51.660;5.824;2023-02-11T14:21:18;103443.31;;;14.49;56.18
48527;BME280;34317;51.660;5.824;2023-02-11T14:23:49;103443.31;;;14.49;56.12
48527;BME280;34317;51.660;5.824;2023-02-11T14:28:58;103450.38;;;14.50;56.03
48527;BME280;34317;51.660;5.824;2023-02-11T14:31:39;103446.00;;;14.48;56.25
48527;BME280;34317;51.660;5.824;2023-02-11T14:36:48;103441.63;;;14.45;56.01
48527;BME280;34317;51.660;5.824;2023-02-11T14:41:55;103448.81;;;14.40;56.04
48527;BME280;34317;51.660;5.824;2023-02-11T14:44:26;103454.19;;;14.37;55.87
48527;BME280;34317;51.660;5.824;2023-02-11T14:46:56;103447.13;;;14.36;55.87
48527;BME280;34317;51.660;5.824;2023-02-11T14:49:30;103447.16;;;14.33;55.87
48527;BME280;34317;51.660;5.824;2023-02-11T14:52:06;103447.25;;;14.30;55.98
48527;BME280;34317;51.660;5.824;2023-02-11T14:54:41;103454.38;;;14.28;55.87
48527;BME280;34317;51.660;5.824;2023-02-11T14:57:18;103451.78;;;14.25;55.97
48527;BME280;34317;51.660;5.824;2023-02-11T14:59:56;103457.09;;;14.25;55.79
48527;BME280;34317;51.660;5.824;2023-02-11T15:02:33;103451.78;;;14.25;56.11
48527;BME280;34317;51.660;5.824;2023-02-11T15:05:22;103450.84;;;14.26;56.03
48527;BME280;34317;51.660;5.824;2023-02-11T15:07:58;103438.44;;;14.26;55.95
48527;BME280;34317;51.660;5.824;2023-02-11T15:10:29;103449.97;;;14.25;56.10